createdAt,value
2019-03-24T00:03:15.214Z,44.20
2019-03-24T00:07:16.087Z,41.77
2019-03-24T00:11:16.941Z,41.87
2019-03-24T00:15:25.722Z,44.50
2019-03-24T00:19:21.022Z,46.03
2019-03-24T00:23:21.915Z,48.20
2019-03-24T00:27:22.810Z,47.93
2019-03-24T00:31:23.706Z,47.33
2019-03-24T00:35:24.782Z,50.77
2019-03-24T00:39:25.803Z,43.47
2019-03-24T00:43:26.791Z,44.03
2019-03-24T00:47:27.805Z,47.27
2019-03-24T00:51:28.680Z,46.73
2019-03-24T00:55:29.756Z,47.53
2019-03-24T00:59:30.666Z,47.43
2019-03-24T01:03:31.646Z,48.73
2019-03-24T01:07:32.802Z,47.27
2019-03-24T01:11:33.707Z,46.50
2019-03-24T01:15:35.483Z,49.70
2019-03-24T01:19:36.679Z,49.43
2019-03-24T01:23:37.607Z,47.40
2019-03-24T01:27:38.602Z,50.70
2019-03-24T01:31:39.475Z,45.93
2019-03-24T01:35:40.468Z,42.53
2019-03-24T01:39:41.324Z,41.80
2019-03-24T01:43:42.225Z,47.40
2019-03-24T01:47:43.226Z,50.20
2019-03-24T01:51:44.224Z,49.33
2019-03-24T01:55:45.096Z,45.63
2019-03-24T01:59:45.975Z,50.73
2019-03-24T02:03:46.838Z,46.27
2019-03-24T02:07:47.727Z,45.07
2019-03-24T02:11:50.796Z,47.53
2019-03-24T02:15:51.415Z,49.40
2019-03-24T02:19:52.310Z,53.97
2019-03-24T02:23:53.170Z,50.40
2019-03-24T02:27:54.073Z,52.13
2019-03-24T02:31:55.066Z,51.47
2019-03-24T02:35:55.969Z,41.90
2019-03-24T02:39:56.845Z,42.87
2019-03-24T02:43:57.743Z,43.93
2019-03-24T02:47:58.629Z,44.17
2019-03-24T02:51:59.623Z,46.43
2019-03-24T02:56:00.486Z,49.17
2019-03-24T03:00:04.058Z,47.30
2019-03-24T03:04:05.049Z,45.47
2019-03-24T03:08:06.063Z,49.13
2019-03-24T03:12:07.156Z,47.03
2019-03-24T03:16:08.147Z,52.23
2019-03-24T03:20:09.636Z,53.23
2019-03-24T03:24:10.536Z,57.33
2019-03-24T03:28:11.430Z,58.87
2019-03-24T03:32:12.376Z,47.00
2019-03-24T03:36:13.273Z,46.17
2019-03-24T03:40:15.072Z,47.60
2019-03-24T03:44:16.072Z,52.77
2019-03-24T03:48:16.933Z,59.20
2019-03-24T03:52:17.904Z,70.33
2019-03-24T03:56:18.804Z,77.53
2019-03-24T04:00:31.130Z,67.10
2019-03-24T04:04:32.221Z,78.73
2019-03-24T04:08:33.138Z,67.20
2019-03-24T04:12:33.995Z,67.87
2019-03-24T04:16:34.904Z,77.17
2019-03-24T04:20:35.972Z,75.10
2019-03-24T04:24:36.947Z,78.30
2019-03-24T04:28:37.829Z,82.30
2019-03-24T04:32:38.739Z,88.20
2019-03-24T04:36:39.607Z,79.37
2019-03-24T04:40:40.477Z,73.90
2019-03-24T04:44:41.399Z,77.93
2019-03-24T04:48:42.240Z,74.17
2019-03-24T04:52:43.118Z,70.97
2019-03-24T04:56:43.992Z,70.83
2019-03-24T05:00:44.898Z,66.43
2019-03-24T05:04:45.858Z,69.87
2019-03-24T05:08:47.846Z,64.37
2019-03-24T05:12:48.732Z,63.93
2019-03-24T05:16:49.618Z,62.43
2019-03-24T05:20:50.487Z,57.97
2019-03-24T05:24:51.318Z,66.57
2019-03-24T05:28:52.193Z,61.00
2019-03-24T05:32:53.044Z,64.07
2019-03-24T05:36:54.027Z,59.57
2019-03-24T05:40:54.897Z,60.33
2019-03-24T05:44:55.839Z,58.17
2019-03-24T05:48:56.752Z,57.57
2019-03-24T05:52:57.622Z,57.47
2019-03-24T05:56:58.547Z,57.97
2019-03-24T06:00:59.402Z,59.43
2019-03-24T06:05:00.298Z,57.87
2019-03-24T06:09:01.266Z,56.83
2019-03-24T06:13:02.366Z,56.90
2019-03-24T06:17:03.437Z,54.80
2019-03-24T06:21:04.432Z,57.23
2019-03-24T06:25:05.633Z,55.10
2019-03-24T06:29:06.603Z,50.57
2019-03-24T06:33:07.462Z,52.33
2019-03-24T06:37:08.492Z,51.70
2019-03-24T06:41:09.376Z,49.40
2019-03-24T06:45:10.993Z,49.77
2019-03-24T06:49:11.871Z,44.90
2019-03-24T06:53:12.722Z,49.77
2019-03-24T06:57:13.691Z,47.27
2019-03-24T07:01:14.663Z,44.17
2019-03-24T07:05:15.658Z,44.33
2019-03-24T07:09:16.499Z,46.07
2019-03-24T07:13:17.414Z,44.43
2019-03-24T07:17:18.393Z,47.53
2019-03-24T07:21:19.278Z,43.30
2019-03-24T07:25:20.262Z,45.63
2019-03-24T07:29:21.231Z,44.07
2019-03-24T07:33:22.097Z,46.23
2019-03-24T07:37:23.097Z,44.47
2019-03-24T07:41:24.027Z,44.23
2019-03-24T07:45:24.908Z,43.57
2019-03-24T07:49:25.833Z,44.57
2019-03-24T07:53:26.828Z,42.37
2019-03-24T07:57:27.807Z,42.47
2019-03-24T08:01:28.681Z,43.87
2019-03-24T08:05:29.671Z,42.90
2019-03-24T08:09:30.572Z,41.47
2019-03-24T08:13:31.642Z,44.13
2019-03-24T08:17:32.487Z,44.77
2019-03-24T08:21:33.397Z,43.43
2019-03-24T08:25:34.491Z,43.93
2019-03-24T08:29:35.355Z,44.20
2019-03-24T08:33:36.263Z,43.80
2019-03-24T08:37:37.267Z,42.10
2019-03-24T08:41:38.818Z,41.47
2019-03-24T08:45:39.943Z,44.17
2019-03-24T08:49:40.838Z,43.20
2019-03-24T08:53:41.765Z,41.20
2019-03-24T08:57:42.653Z,41.23
2019-03-24T09:01:43.563Z,40.83
2019-03-24T09:05:44.437Z,40.80
2019-03-24T09:09:45.411Z,44.90
2019-03-24T09:13:46.442Z,44.13
2019-03-24T09:17:47.598Z,43.03
2019-03-24T09:21:48.612Z,43.60
2019-03-24T09:25:49.506Z,42.97
2019-03-24T09:29:50.523Z,39.93
2019-03-24T09:33:51.461Z,45.10
2019-03-24T09:37:52.334Z,42.37
2019-03-24T09:41:53.218Z,44.37
2019-03-24T09:45:56.109Z,44.07
2019-03-24T09:49:56.921Z,40.23
2019-03-24T09:53:58.842Z,42.00
2019-03-24T09:57:59.846Z,41.53
2019-03-24T10:02:00.808Z,41.23
2019-03-24T10:06:01.946Z,38.47
2019-03-24T10:10:06.668Z,38.87
2019-03-24T10:14:07.583Z,38.13
2019-03-24T10:18:08.584Z,39.37
2019-03-24T10:22:09.662Z,40.77
2019-03-24T10:26:10.526Z,37.37
2019-03-24T10:30:12.031Z,37.50
2019-03-24T10:34:13.061Z,39.43
2019-03-24T10:38:14.176Z,39.17
2019-03-24T10:42:15.179Z,38.87
2019-03-24T10:46:16.209Z,38.77
2019-03-24T10:50:17.118Z,37.67
2019-03-24T10:54:18.227Z,37.47
2019-03-24T10:58:19.161Z,37.57
2019-03-24T11:02:20.221Z,38.30
2019-03-24T11:06:21.146Z,39.20
2019-03-24T11:10:22.016Z,37.87
2019-03-24T11:14:23.324Z,35.80
2019-03-24T11:18:25.127Z,37.00
2019-03-24T11:22:26.105Z,35.97
2019-03-24T11:26:27.250Z,35.77
2019-03-24T11:30:28.311Z,34.63
2019-03-24T11:34:29.182Z,31.47
2019-03-24T11:38:30.062Z,32.03
2019-03-24T11:42:31.041Z,31.93
2019-03-24T11:46:32.341Z,32.50
2019-03-24T11:50:33.309Z,31.67
2019-03-24T11:54:34.439Z,32.23
2019-03-24T11:58:40.375Z,31.17
2019-03-24T12:02:41.381Z,33.30
2019-03-24T12:06:42.484Z,32.53
2019-03-24T12:10:43.460Z,28.63
2019-03-24T12:14:44.354Z,32.23
2019-03-24T12:18:45.365Z,32.33
2019-03-24T12:22:49.891Z,31.00
2019-03-24T12:26:51.014Z,32.60
2019-03-24T12:30:51.972Z,32.03
2019-03-24T12:34:53.065Z,31.40
2019-03-24T12:38:54.176Z,30.97
2019-03-24T12:42:55.205Z,33.17
2019-03-24T12:46:56.611Z,32.27
2019-03-24T12:50:57.800Z,31.20
2019-03-24T12:54:59.106Z,31.77
2019-03-24T12:59:00.070Z,30.47
2019-03-24T13:03:01.200Z,29.10
2019-03-24T13:07:02.249Z,30.80
2019-03-24T13:11:03.428Z,29.53
2019-03-24T13:15:06.105Z,29.60
2019-03-24T13:19:09.084Z,29.37
2019-03-24T13:23:09.963Z,28.50
2019-03-24T13:27:10.954Z,28.20
2019-03-24T13:31:12.130Z,27.97
2019-03-24T13:35:13.013Z,26.77
2019-03-24T13:39:13.939Z,27.37
2019-03-24T13:43:14.803Z,31.17
2019-03-24T13:47:15.800Z,33.17
2019-03-24T13:51:16.949Z,29.47
2019-03-24T13:55:18.047Z,28.87
2019-03-24T13:59:19.248Z,28.53
2019-03-24T14:03:20.100Z,29.77
2019-03-24T14:07:21.008Z,28.33
2019-03-24T14:11:24.176Z,30.40
2019-03-24T14:15:26.479Z,29.53
2019-03-24T14:19:27.661Z,26.90
2019-03-24T14:23:28.772Z,26.47
2019-03-24T14:27:29.759Z,26.93
2019-03-24T14:31:30.771Z,24.50
2019-03-24T14:35:31.646Z,25.10
2019-03-24T14:39:32.610Z,23.50
2019-03-24T14:43:33.858Z,24.87
2019-03-24T14:47:35.148Z,43.83
2019-03-24T14:51:36.288Z,24.87
2019-03-24T14:55:37.184Z,70.57
2019-03-24T14:59:38.678Z,24.30
2019-03-24T15:03:41.594Z,26.00
2019-03-24T15:07:42.649Z,21.10
2019-03-24T15:11:43.678Z,20.17
2019-03-24T15:15:44.728Z,19.20
2019-03-24T15:19:46.042Z,20.47
2019-03-24T15:23:46.999Z,20.30
2019-03-24T15:27:48.007Z,20.17
2019-03-24T15:31:49.235Z,21.50
2019-03-24T15:35:50.303Z,20.60
2019-03-24T15:39:51.298Z,22.50
2019-03-24T15:43:53.002Z,19.83
2019-03-24T15:47:54.102Z,21.37
2019-03-24T15:51:55.244Z,22.33
2019-03-24T15:55:56.342Z,22.37
2019-03-24T15:59:57.244Z,22.23
2019-03-24T16:03:58.138Z,21.70
2019-03-24T16:07:59.155Z,20.03
2019-03-24T16:12:00.265Z,20.00
2019-03-24T16:16:01.509Z,20.43
2019-03-24T16:20:05.371Z,17.13
2019-03-24T16:24:06.844Z,17.63
2019-03-24T16:28:08.473Z,17.20
2019-03-24T16:32:09.609Z,16.37
2019-03-24T16:36:10.959Z,16.33
2019-03-24T16:40:12.222Z,16.33
2019-03-24T16:48:51.844Z,14.07
2019-03-24T16:52:57.502Z,14.20
2019-03-24T16:57:07.139Z,15.70
2019-03-24T17:01:08.892Z,16.10
2019-03-24T17:05:11.503Z,15.70
2019-03-24T17:09:14.121Z,13.93
2019-03-24T17:13:16.263Z,15.10
2019-03-24T17:17:18.736Z,14.37
2019-03-24T17:21:20.604Z,15.70
2019-03-24T17:25:22.027Z,14.43
2019-03-24T17:29:24.390Z,16.23
2019-03-24T17:37:59.994Z,18.30
2019-03-24T17:42:12.677Z,103.13
2019-03-24T17:46:22.472Z,23.60
2019-03-24T17:50:25.033Z,20.83
2019-03-24T17:54:31.454Z,21.03
2019-03-24T17:58:36.985Z,19.27
2019-03-24T18:02:42.466Z,20.37
2019-03-24T18:06:44.588Z,22.20
2019-03-24T18:10:45.799Z,22.02
2019-03-24T18:14:46.868Z,23.00
2019-03-24T18:18:47.862Z,25.33
2019-03-24T18:22:49.303Z,22.77
2019-03-24T18:26:50.563Z,27.50
2019-03-24T18:30:51.707Z,22.82
2019-03-24T18:34:54.238Z,20.43
2019-03-24T18:38:55.248Z,18.87
2019-03-24T18:42:56.463Z,20.37
2019-03-24T18:46:57.786Z,17.00
2019-03-24T18:50:59.237Z,16.23
2019-03-24T18:55:00.407Z,14.83
2019-03-24T18:59:01.650Z,15.10
2019-03-24T19:03:03.097Z,13.97
2019-03-24T19:07:04.336Z,13.60
2019-03-24T19:11:05.423Z,12.20
2019-03-24T19:15:08.481Z,12.93
2019-03-24T19:19:09.561Z,12.63
2019-03-24T19:23:10.818Z,12.27
2019-03-24T19:27:11.833Z,10.77
2019-03-24T19:31:12.963Z,10.20
2019-03-24T19:35:14.383Z,9.77
2019-03-24T19:39:15.375Z,8.03
2019-03-24T19:43:16.376Z,76.40
2019-03-24T19:47:17.357Z,7.30
2019-03-24T19:51:18.297Z,7.00
2019-03-24T19:55:19.421Z,7.00
2019-03-24T19:59:20.426Z,6.67
2019-03-24T20:03:21.446Z,7.07
2019-03-24T20:07:22.495Z,6.90
2019-03-24T20:11:23.591Z,6.73
2019-03-24T20:15:24.628Z,4.80
2019-03-24T20:19:25.553Z,4.30
2019-03-24T20:23:26.783Z,4.50
2019-03-24T20:27:27.880Z,5.33
2019-03-24T20:31:28.901Z,7.27
2019-03-24T20:35:30.147Z,4.40
2019-03-24T20:39:31.266Z,4.60
2019-03-24T20:43:32.353Z,4.33
2019-03-24T20:47:33.276Z,5.20
2019-03-24T20:51:34.276Z,4.37
2019-03-24T20:55:35.170Z,4.60
2019-03-24T20:59:36.057Z,4.30
2019-03-24T21:03:37.191Z,5.53
2019-03-24T21:07:38.198Z,4.77
2019-03-24T21:11:39.147Z,4.63
2019-03-24T21:15:40.075Z,3.63
2019-03-24T21:19:41.091Z,4.23
2019-03-24T21:23:42.159Z,3.87
2019-03-24T21:27:43.175Z,4.20
2019-03-24T21:31:44.397Z,4.33
2019-03-24T21:35:45.625Z,3.80
2019-03-24T21:39:46.561Z,4.87
2019-03-24T21:43:47.622Z,4.00
2019-03-24T21:47:48.818Z,4.60
2019-03-24T21:51:49.903Z,3.70
2019-03-24T21:55:50.971Z,6.03
2019-03-24T21:59:51.892Z,4.77
2019-03-24T22:03:52.846Z,3.80
2019-03-24T22:07:53.946Z,4.37
2019-03-24T22:11:54.843Z,4.40
2019-03-24T22:15:55.887Z,4.40
2019-03-24T22:19:57.189Z,4.50
2019-03-24T22:23:58.649Z,4.33
2019-03-24T22:27:59.786Z,3.87
2019-03-24T22:32:00.709Z,5.70
2019-03-24T22:36:01.846Z,3.70
2019-03-24T22:40:05.661Z,4.37
2019-03-24T22:44:06.645Z,4.07
2019-03-24T22:48:07.590Z,3.97
2019-03-24T22:52:08.595Z,3.13
2019-03-24T22:56:09.956Z,4.03
2019-03-24T23:00:14.941Z,4.57
2019-03-24T23:04:16.192Z,3.67
2019-03-24T23:08:17.664Z,3.90
2019-03-24T23:12:18.713Z,3.67
2019-03-24T23:16:19.812Z,4.73
2019-03-24T23:20:20.706Z,3.53
2019-03-24T23:24:21.665Z,3.90
2019-03-24T23:28:22.734Z,3.73
2019-03-24T23:32:23.619Z,6.80
2019-03-24T23:36:24.506Z,4.57
2019-03-24T23:40:25.594Z,4.80
2019-03-24T23:44:26.450Z,4.73
2019-03-24T23:48:27.376Z,4.67
2019-03-24T23:52:28.401Z,5.33
2019-03-24T23:56:29.419Z,6.10
